createdAt,value
2018-11-22T12:16:40.179Z,24.00
2018-11-22T12:19:09.611Z,23.90
2018-11-22T12:21:38.835Z,24.43
2018-11-22T12:24:08.927Z,23.43
2018-11-22T12:26:38.287Z,23.20
2018-11-22T12:29:07.726Z,23.43
2018-11-22T12:31:37.031Z,22.50
2018-11-22T12:34:11.990Z,23.63
2018-11-22T12:36:49.947Z,23.73
2018-11-22T12:39:19.343Z,24.07
2018-11-22T12:41:48.519Z,23.83
2018-11-22T12:44:17.704Z,23.63
2018-11-22T12:46:47.978Z,24.53
2018-11-22T12:49:17.178Z,23.47
2018-11-22T12:51:46.340Z,25.30
2018-11-22T12:54:15.593Z,24.23
2018-11-22T12:56:46.172Z,24.00
2018-11-22T12:59:16.093Z,24.13
2018-11-22T13:01:45.282Z,24.90
2018-11-22T13:04:14.508Z,24.57
2018-11-22T13:06:44.097Z,25.00
2018-11-22T13:09:13.280Z,23.57
2018-11-22T13:11:47.607Z,24.20
2018-11-22T13:14:12.830Z,23.80
2018-11-22T13:16:42.031Z,24.03
2018-11-22T13:19:11.251Z,23.30
2018-11-22T13:21:40.759Z,23.63
2018-11-22T13:24:11.429Z,23.70
2018-11-22T13:26:40.599Z,23.03
2018-11-22T13:29:09.881Z,24.10
2018-11-22T13:31:39.040Z,22.73
2018-11-22T13:34:08.218Z,24.03
2018-11-22T13:36:38.454Z,22.83
2018-11-22T13:39:10.083Z,22.20
2018-11-22T13:41:40.634Z,22.47
2018-11-22T13:44:09.795Z,23.43
2018-11-22T13:46:40.814Z,22.13
2018-11-22T13:49:10.139Z,22.90
2018-11-22T13:51:39.354Z,23.10
2018-11-22T13:54:08.593Z,22.77
2018-11-22T13:56:37.798Z,22.87
2018-11-22T13:59:08.245Z,22.63
2018-11-22T14:01:37.453Z,23.00
2018-11-22T14:04:06.704Z,21.60
2018-11-22T14:06:35.882Z,22.07
2018-11-22T14:09:08.518Z,22.63
2018-11-22T14:11:38.732Z,21.90
2018-11-22T14:14:07.921Z,22.20
2018-11-22T14:16:38.459Z,22.33
2018-11-22T14:19:07.653Z,22.67
2018-11-22T14:21:37.803Z,22.23
2018-11-22T14:24:07.121Z,21.60
2018-11-22T14:26:36.350Z,22.80
2018-11-22T14:29:05.895Z,21.37
2018-11-22T14:31:35.545Z,22.13
2018-11-22T14:34:07.325Z,21.47
2018-11-22T14:36:37.579Z,22.07
2018-11-22T14:39:08.090Z,21.50
2018-11-22T14:41:37.273Z,21.57
2018-11-22T14:44:06.977Z,21.90
2018-11-22T14:46:36.783Z,21.60
2018-11-22T14:49:06.536Z,20.73
2018-11-22T14:51:41.087Z,21.47
2018-11-22T14:54:11.154Z,21.20
2018-11-22T14:56:41.133Z,21.23
2018-11-22T14:59:10.679Z,21.87
2018-11-22T15:01:39.864Z,21.47
2018-11-22T15:04:09.060Z,22.20
2018-11-22T15:06:38.706Z,20.87
2018-11-22T15:09:10.179Z,21.83
2018-11-22T15:11:39.502Z,22.73
2018-11-22T15:14:08.804Z,23.30
2018-11-22T15:16:38.585Z,22.73
2018-11-22T15:19:08.683Z,23.03
2018-11-22T15:21:37.976Z,22.07
2018-11-22T15:24:07.179Z,22.83
2018-11-22T15:26:37.057Z,21.93
2018-11-22T15:29:07.467Z,22.20
2018-11-22T15:31:36.794Z,22.73
2018-11-22T15:34:06.246Z,23.43
2018-11-22T15:36:35.431Z,22.27
2018-11-22T15:39:06.603Z,22.53
2018-11-22T15:41:41.113Z,21.73
2018-11-22T15:44:10.306Z,21.93
2018-11-22T15:46:39.501Z,20.90
2018-11-22T15:49:09.376Z,21.77
2018-11-22T15:51:38.700Z,22.03
2018-11-22T15:54:07.857Z,21.50
2018-11-22T15:56:38.077Z,22.67
2018-11-22T15:59:07.255Z,22.47
2018-11-22T16:01:38.632Z,21.70
2018-11-22T16:04:07.992Z,22.43
2018-11-22T16:06:37.170Z,21.23
2018-11-22T16:09:08.430Z,21.83
2018-11-22T16:11:38.602Z,21.90
2018-11-22T16:14:08.293Z,22.63
2018-11-22T16:16:37.557Z,21.47
2018-11-22T16:19:06.731Z,22.40
2018-11-22T16:21:35.915Z,21.53
2018-11-22T16:24:06.826Z,21.93
2018-11-22T16:26:36.511Z,23.30
2018-11-22T16:29:06.052Z,22.33
2018-11-22T16:31:35.271Z,21.83
2018-11-22T16:34:05.693Z,23.33
2018-11-22T16:36:36.328Z,22.53
2018-11-22T16:39:08.970Z,21.43
2018-11-22T16:41:38.394Z,22.57
2018-11-22T16:44:07.999Z,23.60
2018-11-22T16:46:38.703Z,22.90
2018-11-22T16:49:08.182Z,22.83
2018-11-22T16:51:37.818Z,22.03
2018-11-22T16:54:07.098Z,23.40
2018-11-22T16:56:36.287Z,22.10
2018-11-22T16:59:06.367Z,23.70
2018-11-22T17:01:35.674Z,22.50
2018-11-22T17:04:06.645Z,23.03
2018-11-22T17:06:35.799Z,22.17
2018-11-22T17:09:09.193Z,23.00
2018-11-22T17:11:39.222Z,22.13
2018-11-22T17:14:08.436Z,22.60
2018-11-22T17:16:37.759Z,22.20
2018-11-22T17:19:06.959Z,23.07
2018-11-22T17:21:37.794Z,23.50
2018-11-22T17:24:07.345Z,23.60
2018-11-22T17:26:36.588Z,24.03
2018-11-22T17:29:05.799Z,24.37
2018-11-22T17:31:35.078Z,24.13
2018-11-22T17:34:05.199Z,24.43
2018-11-22T17:36:34.407Z,23.50
2018-11-22T17:39:04.185Z,23.63
2018-11-22T17:41:33.329Z,24.17
2018-11-22T17:44:02.529Z,23.37
2018-11-22T17:46:34.906Z,24.37
2018-11-22T17:49:04.107Z,22.17
2018-11-22T17:51:33.613Z,23.87
2018-11-22T17:54:02.951Z,24.20
2018-11-22T17:56:32.578Z,24.57
2018-11-22T17:59:02.333Z,23.97
2018-11-22T18:01:31.541Z,24.23
2018-11-22T18:04:01.658Z,23.63
2018-11-22T18:06:30.933Z,23.97
2018-11-22T18:09:00.586Z,25.30
2018-11-22T18:11:30.329Z,23.97
2018-11-22T18:13:59.557Z,25.13
2018-11-22T18:16:28.789Z,24.13
2018-11-22T18:18:57.984Z,24.37
2018-11-22T18:21:28.367Z,24.27
2018-11-22T18:23:57.976Z,24.00
2018-11-22T18:26:27.322Z,23.93
2018-11-22T18:28:56.610Z,25.30
2018-11-22T18:31:25.990Z,24.20
2018-11-22T18:33:55.897Z,25.43
2018-11-22T18:36:25.529Z,25.53
2018-11-22T18:38:54.838Z,25.50
2018-11-22T18:41:24.058Z,24.40
2018-11-22T18:43:53.233Z,24.60
2018-11-22T18:46:24.161Z,24.93
2018-11-22T18:48:53.730Z,23.80
2018-11-22T18:51:23.390Z,25.77
2018-11-22T18:53:52.636Z,25.07
2018-11-22T18:56:21.833Z,25.37
2018-11-22T18:58:51.543Z,24.07
2018-11-22T19:01:21.655Z,25.93
2018-11-22T19:03:51.259Z,25.73
2018-11-22T19:06:20.438Z,24.20
2018-11-22T19:08:51.697Z,24.80
2018-11-22T19:11:21.477Z,25.43
2018-11-22T19:13:51.167Z,25.63
2018-11-22T19:16:20.406Z,25.20
2018-11-22T19:18:49.615Z,25.10
2018-11-22T19:21:18.994Z,25.43
2018-11-22T19:23:48.942Z,24.57
2018-11-22T19:26:18.681Z,25.40
2018-11-22T19:28:47.864Z,25.40
2018-11-22T19:31:17.105Z,25.03
2018-11-22T19:33:46.348Z,25.77
2018-11-22T19:36:17.417Z,24.33
2018-11-22T19:38:47.398Z,24.80
2018-11-22T19:41:16.564Z,26.17
2018-11-22T19:43:46.016Z,25.13
2018-11-22T19:46:17.292Z,24.37
2018-11-22T19:48:46.897Z,25.67
2018-11-22T19:51:16.131Z,25.23
2018-11-22T19:53:45.396Z,24.47
2018-11-22T19:56:14.586Z,24.37
2018-11-22T19:58:44.778Z,23.97
2018-11-22T20:01:14.154Z,24.97
2018-11-22T20:03:43.451Z,25.20
2018-11-22T20:06:12.668Z,25.10
2018-11-22T20:08:42.041Z,25.60
2018-11-22T20:11:12.427Z,24.30
2018-11-22T20:13:41.951Z,24.23
2018-11-22T20:16:11.374Z,25.07
2018-11-22T20:18:40.829Z,23.63
2018-11-22T20:21:10.183Z,24.73
2018-11-22T20:23:42.385Z,25.17
2018-11-22T20:26:11.815Z,25.60
2018-11-22T20:28:41.058Z,25.10
2018-11-22T20:31:10.339Z,25.70
2018-11-22T20:33:40.034Z,25.23
2018-11-22T20:36:10.124Z,26.17
2018-11-22T20:38:39.987Z,25.43
2018-11-22T20:41:09.296Z,26.00
2018-11-22T20:43:39.120Z,24.77
2018-11-22T20:46:09.486Z,24.97
2018-11-22T20:48:38.851Z,25.03
2018-11-22T20:51:08.506Z,25.40
2018-11-22T20:53:37.735Z,24.80
2018-11-22T20:56:07.432Z,26.13
2018-11-22T20:58:37.123Z,25.67
2018-11-22T21:01:06.925Z,24.97
2018-11-22T21:03:36.094Z,24.73
2018-11-22T21:06:05.558Z,24.40
2018-11-22T21:08:35.319Z,24.63
2018-11-22T21:11:06.295Z,24.13
2018-11-22T21:13:35.857Z,24.90
2018-11-22T21:16:05.067Z,24.27
2018-11-22T21:18:34.262Z,24.20
2018-11-22T21:21:03.943Z,24.20
2018-11-22T21:23:33.675Z,24.03
2018-11-22T21:26:02.864Z,24.97
2018-11-22T21:28:32.067Z,23.93
2018-11-22T21:31:02.220Z,24.30
2018-11-22T21:33:32.020Z,24.77
2018-11-22T21:36:02.530Z,23.13
2018-11-22T21:38:31.896Z,24.10
2018-11-22T21:41:01.079Z,24.77
2018-11-22T21:43:30.237Z,23.50
2018-11-22T21:45:59.991Z,23.17
2018-11-22T21:48:29.755Z,23.97
2018-11-22T21:50:58.957Z,23.27
2018-11-22T21:53:28.691Z,22.33
2018-11-22T21:55:57.896Z,22.50
2018-11-22T21:58:27.691Z,22.10
2018-11-22T22:00:58.377Z,23.13
2018-11-22T22:03:27.573Z,24.27
2018-11-22T22:05:56.742Z,23.93
2018-11-22T22:08:26.074Z,23.87
2018-11-22T22:10:55.806Z,22.50
2018-11-22T22:13:25.545Z,23.67
2018-11-22T22:15:55.200Z,22.83
2018-11-22T22:18:24.470Z,23.00
2018-11-22T22:20:53.735Z,22.97
2018-11-22T22:23:23.429Z,22.57
2018-11-22T22:25:53.671Z,22.73
2018-11-22T22:28:22.893Z,23.83
2018-11-22T22:30:52.093Z,23.47
2018-11-22T22:33:21.409Z,23.50
2018-11-22T22:35:51.079Z,22.73
2018-11-22T22:38:20.758Z,23.60
2018-11-22T22:40:50.031Z,23.50
2018-11-22T22:43:19.256Z,23.33
2018-11-22T22:45:49.792Z,23.13
2018-11-22T22:48:19.616Z,21.40
2018-11-22T22:50:50.167Z,22.97
2018-11-22T22:53:19.344Z,22.83
2018-11-22T22:55:48.535Z,23.00
2018-11-22T22:58:17.858Z,22.63
2018-11-22T23:00:47.705Z,23.13
2018-11-22T23:03:17.596Z,22.57
2018-11-22T23:05:46.930Z,23.00
2018-11-22T23:08:16.104Z,22.57
2018-11-22T23:10:45.283Z,22.30
2018-11-22T23:13:14.892Z,22.97
2018-11-22T23:15:45.653Z,23.53
2018-11-22T23:18:16.201Z,23.10
2018-11-22T23:20:45.387Z,21.97
2018-11-22T23:23:14.683Z,23.43
2018-11-22T23:25:44.388Z,22.90
2018-11-22T23:28:14.075Z,24.30
2018-11-22T23:30:43.282Z,22.90
2018-11-22T23:33:12.615Z,24.23
2018-11-22T23:35:41.776Z,23.20
2018-11-22T23:38:13.175Z,23.23
2018-11-22T23:40:42.358Z,22.90
2018-11-22T23:43:11.634Z,23.47
2018-11-22T23:45:40.880Z,23.10
2018-11-22T23:48:10.091Z,23.10
2018-11-22T23:50:40.195Z,23.30
2018-11-22T23:53:10.748Z,22.03
2018-11-22T23:55:39.972Z,22.07
2018-11-22T23:58:09.142Z,23.73
